createdAt,value
2023-04-26T00:02:05.155Z,99767.06
2023-04-26T00:04:34.187Z,99762.09
2023-04-26T00:07:01.892Z,99770.75
2023-04-26T00:09:29.731Z,99769.28
2023-04-26T00:11:57.587Z,99773.47
2023-04-26T00:14:25.330Z,99774.44
2023-04-26T00:16:52.852Z,99762.94
2023-04-26T00:19:21.409Z,99771.81
2023-04-26T00:21:49.081Z,99773.47
2023-04-26T00:24:16.605Z,99763.00
2023-04-26T00:26:44.279Z,99760.44
2023-04-26T00:29:11.820Z,99765.78
2023-04-26T00:31:40.246Z,99766.84
2023-04-26T00:34:07.964Z,99772.25
2023-04-26T00:36:35.463Z,99771.75
2023-04-26T00:39:03.324Z,99776.22
2023-04-26T00:41:31.272Z,99779.72
2023-04-26T00:43:58.796Z,99776.38
2023-04-26T00:46:28.834Z,99773.59
2023-04-26T00:48:57.105Z,99773.69
2023-04-26T00:51:24.805Z,99773.09
2023-04-26T00:53:52.438Z,99782.69
2023-04-26T00:56:20.996Z,99771.06
2023-04-26T00:58:48.641Z,99770.16
2023-04-26T01:01:16.339Z,99777.97
2023-04-26T01:03:46.853Z,99778.63
2023-04-26T01:06:14.539Z,99777.22
2023-04-26T01:08:42.064Z,99784.31
2023-04-26T01:11:10.568Z,99785.09
2023-04-26T01:13:38.596Z,99774.00
2023-04-26T01:16:08.120Z,99771.16
2023-04-26T01:18:36.204Z,99778.38
2023-04-26T01:21:05.119Z,99782.88
2023-04-26T01:23:32.847Z,99775.16
2023-04-26T01:26:00.719Z,99787.34
2023-04-26T01:28:28.527Z,99789.78
2023-04-26T01:30:56.946Z,99784.81
2023-04-26T01:33:24.795Z,99790.75
2023-04-26T01:35:52.685Z,99789.31
2023-04-26T01:38:20.825Z,99789.41
2023-04-26T01:40:48.702Z,99784.84
2023-04-26T01:43:18.438Z,99800.22
2023-04-26T01:45:49.053Z,99810.66
2023-04-26T01:48:29.388Z,99813.16
2023-04-26T01:50:57.166Z,99813.03
2023-04-26T01:53:24.866Z,99811.66
2023-04-26T01:55:52.649Z,99799.56
2023-04-26T01:58:20.148Z,99815.03
2023-04-26T02:00:47.896Z,99816.72
2023-04-26T02:03:16.829Z,99807.09
2023-04-26T02:05:44.399Z,99811.34
2023-04-26T02:08:12.321Z,99826.00
2023-04-26T02:10:40.139Z,99815.38
2023-04-26T02:13:10.727Z,99817.94
2023-04-26T02:15:38.232Z,99822.19
2023-04-26T02:18:06.160Z,99818.50
2023-04-26T02:20:33.819Z,99807.97
2023-04-26T02:23:01.347Z,99820.81
2023-04-26T02:25:29.173Z,99817.31
2023-04-26T02:27:56.971Z,99820.50
2023-04-26T02:30:25.231Z,99823.94
2023-04-26T02:32:54.485Z,99829.19
2023-04-26T02:35:22.614Z,99820.13
2023-04-26T02:37:52.305Z,99822.69
2023-04-26T02:40:20.456Z,99825.03
2023-04-26T02:42:48.827Z,99825.75
2023-04-26T02:45:16.386Z,99825.56
2023-04-26T02:47:43.897Z,99830.94
2023-04-26T02:50:12.238Z,99828.03
2023-04-26T02:52:39.778Z,99830.53
2023-04-26T02:55:07.937Z,99829.53
2023-04-26T02:57:35.773Z,99834.53
2023-04-26T03:00:05.608Z,99837.22
2023-04-26T03:02:33.634Z,99835.16
2023-04-26T03:05:02.320Z,99845.28
2023-04-26T03:07:31.455Z,99839.00
2023-04-26T03:09:59.053Z,99842.22
2023-04-26T03:12:27.044Z,99842.16
2023-04-26T03:14:54.469Z,99851.75
2023-04-26T03:17:22.161Z,99856.06
2023-04-26T03:19:50.362Z,99853.44
2023-04-26T03:22:18.446Z,99856.72
2023-04-26T03:24:46.893Z,99862.81
2023-04-26T03:27:14.884Z,99867.75
2023-04-26T03:29:44.102Z,99869.44
2023-04-26T03:32:12.161Z,99873.91
2023-04-26T03:34:40.061Z,99881.47
2023-04-26T03:37:07.702Z,99877.16
2023-04-26T03:39:36.902Z,99890.38
2023-04-26T03:42:04.724Z,99893.78
2023-04-26T03:44:33.993Z,99898.88
2023-04-26T03:47:01.579Z,99892.59
2023-04-26T03:49:29.803Z,99897.88
2023-04-26T03:51:57.463Z,99897.75
2023-04-26T03:54:25.112Z,99904.88
2023-04-26T03:56:52.963Z,99912.31
2023-04-26T03:59:20.918Z,99912.31
2023-04-26T04:01:48.592Z,99928.88
2023-04-26T04:04:17.277Z,99919.91
2023-04-26T04:06:45.201Z,99927.75
2023-04-26T04:09:12.755Z,99929.41
2023-04-26T04:11:40.616Z,99933.75
2023-04-26T04:14:08.225Z,99935.31
2023-04-26T04:16:35.879Z,99937.09
2023-04-26T04:19:03.943Z,99940.31
2023-04-26T04:21:32.172Z,99948.22
2023-04-26T04:23:59.723Z,99946.31
2023-04-26T04:26:31.005Z,99955.72
2023-04-26T04:29:08.608Z,99946.97
2023-04-26T04:31:37.146Z,99949.38
2023-04-26T04:34:04.880Z,99958.88
2023-04-26T04:36:32.590Z,99963.56
2023-04-26T04:39:00.419Z,99961.50
2023-04-26T04:41:27.957Z,99969.31
2023-04-26T04:43:55.720Z,99973.47
2023-04-26T04:46:25.424Z,99981.16
2023-04-26T04:48:53.569Z,99989.03
2023-04-26T04:51:21.702Z,99982.19
2023-04-26T04:53:49.518Z,99992.31
2023-04-26T04:56:18.485Z,99997.88
2023-04-26T04:58:47.811Z,100003.13
2023-04-26T05:01:18.553Z,99998.81
2023-04-26T05:03:46.504Z,100009.06
2023-04-26T05:06:14.154Z,100015.16
2023-04-26T05:08:42.197Z,100017.69
2023-04-26T05:11:10.526Z,100014.28
2023-04-26T05:13:38.585Z,100021.94
2023-04-26T05:16:06.866Z,100021.34
2023-04-26T05:18:34.742Z,100027.78
2023-04-26T05:21:02.690Z,100029.44
2023-04-26T05:23:31.074Z,100037.44
2023-04-26T05:26:02.166Z,100033.87
2023-04-26T05:28:32.125Z,100040.50
2023-04-26T05:31:01.978Z,100031.97
2023-04-26T05:33:32.593Z,100041.59
2023-04-26T05:36:02.865Z,100044.66
2023-04-26T05:38:31.284Z,100049.53
2023-04-26T05:40:58.923Z,100044.00
2023-04-26T05:43:27.666Z,100052.66
2023-04-26T05:45:57.332Z,100049.38
2023-04-26T05:48:25.614Z,100054.22
2023-04-26T05:50:53.829Z,100055.75
2023-04-26T05:53:21.705Z,100049.44
2023-04-26T05:55:49.393Z,100057.84
2023-04-26T05:58:17.933Z,100054.13
2023-04-26T06:01:13.895Z,100068.38
2023-04-26T06:03:42.298Z,100063.75
2023-04-26T06:06:10.118Z,100061.00
2023-04-26T06:08:39.064Z,100071.19
2023-04-26T06:11:07.248Z,100070.25
2023-04-26T06:13:34.883Z,100069.50
2023-04-26T06:16:02.676Z,100077.91
2023-04-26T06:18:30.883Z,100077.63
2023-04-26T06:20:58.585Z,100088.88
2023-04-26T06:24:06.603Z,100085.16
2023-04-26T06:26:39.020Z,100093.97
2023-04-26T06:29:11.326Z,100093.59
2023-04-26T06:31:55.439Z,100090.47
2023-04-26T06:34:25.968Z,100086.59
2023-04-26T06:36:54.077Z,100091.47
2023-04-26T06:39:22.431Z,100097.13
2023-04-26T06:41:52.584Z,100105.59
2023-04-26T06:44:32.363Z,100105.69
2023-04-26T06:50:16.610Z,100102.41
2023-04-26T06:52:53.730Z,100102.06
2023-04-26T06:55:21.487Z,100111.69
2023-04-26T07:01:02.110Z,100112.00
2023-04-26T07:03:31.213Z,100114.97
2023-04-26T07:05:59.276Z,100117.38
2023-04-26T07:08:26.877Z,100115.16
2023-04-26T07:10:55.468Z,100115.50
2023-04-26T07:13:41.801Z,100114.22
2023-04-26T07:16:20.271Z,100122.41
2023-04-26T07:18:48.516Z,100127.94
2023-04-26T07:21:16.652Z,100124.69
2023-04-26T07:23:44.355Z,100124.38
2023-04-26T07:26:12.210Z,100136.84
2023-04-26T07:28:40.585Z,100127.72
2023-04-26T07:31:10.088Z,100137.09
2023-04-26T07:33:38.869Z,100136.91
2023-04-26T07:36:06.901Z,100132.84
2023-04-26T07:38:34.434Z,100132.78
2023-04-26T07:41:02.113Z,100130.97
2023-04-26T07:43:30.839Z,100139.22
2023-04-26T07:46:02.495Z,100130.62
2023-04-26T07:48:30.491Z,100135.72
2023-04-26T07:51:07.371Z,100149.75
2023-04-26T07:53:35.422Z,100145.81
2023-04-26T07:56:09.629Z,100149.75
2023-04-26T07:58:39.356Z,100149.28
2023-04-26T08:01:07.221Z,100149.84
2023-04-26T08:03:35.203Z,100144.12
2023-04-26T08:06:03.978Z,100152.87
2023-04-26T08:08:33.444Z,100140.78
2023-04-26T08:11:01.532Z,100153.06
2023-04-26T08:13:29.614Z,100155.25
2023-04-26T08:15:57.236Z,100153.53
2023-04-26T08:18:25.859Z,100155.78
2023-04-26T08:20:55.313Z,100142.44
2023-04-26T08:23:23.009Z,100153.97
2023-04-26T08:25:50.933Z,100153.25
2023-04-26T08:28:18.612Z,100165.91
2023-04-26T08:30:46.398Z,100150.69
2023-04-26T08:33:14.362Z,100146.28
2023-04-26T08:35:41.813Z,100152.84
2023-04-26T08:38:09.666Z,100155.41
2023-04-26T08:40:38.197Z,100157.28
2023-04-26T08:43:05.821Z,100148.59
2023-04-26T08:45:34.778Z,100140.06
2023-04-26T08:48:07.375Z,100145.44
2023-04-26T08:50:36.936Z,100150.72
2023-04-26T08:53:06.018Z,100144.12
2023-04-26T08:55:33.937Z,100142.75
2023-04-26T08:58:01.477Z,100149.69
2023-04-26T09:00:29.632Z,100155.53
2023-04-26T09:02:57.353Z,100143.62
2023-04-26T09:05:26.709Z,100160.78
2023-04-26T09:07:57.759Z,100181.56
2023-04-26T09:10:25.469Z,100149.09
2023-04-26T09:12:53.700Z,100151.97
2023-04-26T09:15:23.172Z,100140.94
2023-04-26T09:17:52.352Z,100152.75
2023-04-26T09:20:21.937Z,100152.44
2023-04-26T09:22:54.406Z,100150.75
2023-04-26T09:25:29.738Z,100160.97
2023-04-26T09:27:58.621Z,100162.50
2023-04-26T09:30:27.340Z,100166.53
2023-04-26T09:33:06.588Z,100168.09
2023-04-26T09:35:36.579Z,100173.06
2023-04-26T09:38:12.244Z,100169.59
2023-04-26T09:40:49.575Z,100190.75
2023-04-26T09:43:21.757Z,100171.41
2023-04-26T09:45:51.809Z,100179.72
2023-04-26T09:48:25.897Z,100208.19
2023-04-26T09:50:55.309Z,100184.53
2023-04-26T09:53:27.549Z,100188.84
2023-04-26T09:55:56.282Z,100173.25
2023-04-26T09:58:24.347Z,100183.91
2023-04-26T10:00:52.367Z,100183.00
2023-04-26T10:03:23.777Z,100171.19
2023-04-26T10:05:51.681Z,100186.16
2023-04-26T10:08:19.669Z,100189.41
2023-04-26T10:10:47.944Z,100173.53
2023-04-26T10:13:16.781Z,100201.59
2023-04-26T10:15:48.640Z,100185.44
2023-04-26T10:18:40.344Z,100184.09
2023-04-26T10:21:36.338Z,100197.97
2023-04-26T10:24:25.072Z,100179.09
2023-04-26T10:26:58.386Z,100167.56
2023-04-26T10:30:12.439Z,100174.31
2023-04-26T10:32:54.618Z,100188.03
2023-04-26T10:36:21.790Z,100176.97
2023-04-26T10:39:18.520Z,100190.13
2023-04-26T10:41:46.638Z,100180.53
2023-04-26T10:44:37.810Z,100177.06
2023-04-26T10:47:54.875Z,100174.53
2023-04-26T10:50:22.753Z,100189.06
2023-04-26T10:53:05.547Z,100195.00
2023-04-26T10:55:41.648Z,100185.16
2023-04-26T10:58:31.891Z,100181.97
2023-04-26T11:01:05.481Z,100176.19
2023-04-26T11:03:33.670Z,100175.41
2023-04-26T11:06:09.929Z,100183.97
2023-04-26T11:08:37.814Z,100188.47
2023-04-26T11:11:38.828Z,100183.78
2023-04-26T11:14:07.487Z,100190.19
2023-04-26T11:16:35.186Z,100185.47
2023-04-26T11:19:06.669Z,100176.97
2023-04-26T11:21:36.781Z,100177.22
2023-04-26T11:24:24.156Z,100171.81
2023-04-26T11:26:54.593Z,100194.38
2023-04-26T11:29:22.566Z,100187.91
2023-04-26T11:31:58.053Z,100177.53
2023-04-26T11:34:36.814Z,100178.31
2023-04-26T11:37:06.288Z,100169.63
2023-04-26T11:39:35.142Z,100169.91
2023-04-26T11:42:09.585Z,100180.88
2023-04-26T11:44:38.754Z,100193.72
2023-04-26T11:47:07.195Z,100182.91
2023-04-26T11:49:37.273Z,100175.72
2023-04-26T11:52:06.182Z,100174.25
2023-04-26T11:54:35.917Z,100179.06
2023-04-26T11:57:18.097Z,100181.78
2023-04-26T11:59:53.581Z,100172.22
2023-04-26T12:02:42.034Z,100173.50
2023-04-26T12:05:10.643Z,100180.28
2023-04-26T12:07:42.307Z,100172.84
2023-04-26T12:10:21.531Z,100173.81
2023-04-26T12:12:51.054Z,100172.06
2023-04-26T12:15:21.143Z,100171.47
2023-04-26T12:17:57.281Z,100161.31
2023-04-26T12:20:29.847Z,100172.87
2023-04-26T12:22:59.438Z,100165.84
2023-04-26T12:25:28.021Z,100183.63
2023-04-26T12:27:56.307Z,100171.34
2023-04-26T12:30:25.643Z,100178.16
2023-04-26T12:36:12.641Z,100178.25
2023-04-26T12:38:40.576Z,100178.38
2023-04-26T12:41:08.412Z,100185.56
2023-04-26T12:43:36.688Z,100198.66
2023-04-26T12:46:04.685Z,100187.88
2023-04-26T12:48:38.866Z,100169.41
2023-04-26T12:51:06.966Z,100170.97
2023-04-26T12:53:34.759Z,100190.69
2023-04-26T12:56:02.321Z,100168.72
2023-04-26T12:58:30.121Z,100182.06
2023-04-26T13:00:58.070Z,100179.56
2023-04-26T13:03:25.756Z,100197.75
2023-04-26T13:05:53.679Z,100197.41
2023-04-26T13:08:22.769Z,100185.03
2023-04-26T13:10:50.396Z,100184.81
2023-04-26T13:13:19.159Z,100169.53
2023-04-26T13:15:46.933Z,100189.75
2023-04-26T13:18:16.065Z,100201.88
2023-04-26T13:20:44.900Z,100188.22
2023-04-26T13:23:12.702Z,100201.91
2023-04-26T13:25:41.026Z,100213.66
2023-04-26T13:28:09.052Z,100203.59
2023-04-26T13:30:36.650Z,100193.53
2023-04-26T13:33:04.870Z,100198.16
2023-04-26T13:35:36.321Z,100205.00
2023-04-26T13:38:08.703Z,100190.88
2023-04-26T13:40:37.869Z,100191.88
2023-04-26T13:43:05.419Z,100203.16
2023-04-26T13:45:36.752Z,100207.06
2023-04-26T13:48:04.742Z,100218.31
2023-04-26T13:50:32.306Z,100205.59
2023-04-26T13:53:00.202Z,100212.38
2023-04-26T13:55:29.865Z,100206.22
2023-04-26T13:57:57.527Z,100217.41
2023-04-26T14:00:25.132Z,100221.78
2023-04-26T14:02:53.115Z,100224.19
2023-04-26T14:05:20.959Z,100214.06
2023-04-26T14:07:48.543Z,100226.16
2023-04-26T14:10:16.762Z,100230.97
2023-04-26T14:12:44.358Z,100226.78
2023-04-26T14:15:13.721Z,100220.47
2023-04-26T14:17:42.162Z,100232.72
2023-04-26T14:20:10.571Z,100218.62
2023-04-26T14:22:39.299Z,100219.16
2023-04-26T14:25:07.411Z,100231.25
2023-04-26T14:27:35.431Z,100228.34
2023-04-26T14:30:03.426Z,100240.59
2023-04-26T14:32:31.544Z,100245.62
2023-04-26T14:34:59.134Z,100245.59
2023-04-26T14:37:27.460Z,100256.72
2023-04-26T14:39:55.363Z,100248.94
2023-04-26T14:42:23.016Z,100261.25
2023-04-26T14:44:50.643Z,100259.91
2023-04-26T14:47:18.294Z,100251.00
2023-04-26T14:49:46.739Z,100250.78
2023-04-26T14:52:14.331Z,100263.94
2023-04-26T14:54:42.547Z,100263.84
2023-04-26T14:57:10.531Z,100276.72
2023-04-26T14:59:38.043Z,100260.41
2023-04-26T15:02:06.048Z,100268.44
2023-04-26T15:04:33.845Z,100257.28
2023-04-26T15:07:02.634Z,100266.88
2023-04-26T15:09:30.887Z,100268.06
2023-04-26T15:11:59.011Z,100286.34
2023-04-26T15:14:26.899Z,100277.37
2023-04-26T15:16:54.894Z,100273.84
2023-04-26T15:19:23.094Z,100263.09
2023-04-26T15:21:50.629Z,100272.94
2023-04-26T15:24:18.508Z,100265.38
2023-04-26T15:26:46.414Z,100270.63
2023-04-26T15:29:14.191Z,100272.94
2023-04-26T15:31:41.953Z,100270.22
2023-04-26T15:34:09.756Z,100280.03
2023-04-26T15:36:37.439Z,100275.31
2023-04-26T15:39:05.386Z,100272.16
2023-04-26T15:41:33.259Z,100297.72
2023-04-26T15:44:00.710Z,100292.34
2023-04-26T15:46:28.532Z,100289.59
2023-04-26T15:48:56.824Z,100298.41
2023-04-26T15:51:24.444Z,100314.53
2023-04-26T15:53:52.629Z,100287.63
2023-04-26T15:56:20.082Z,100300.59
2023-04-26T15:58:48.466Z,100295.38
2023-04-26T16:01:16.743Z,100294.44
2023-04-26T16:03:47.443Z,100301.72
2023-04-26T16:06:16.088Z,100300.47
2023-04-26T16:08:44.189Z,100291.00
2023-04-26T16:11:11.642Z,100303.44
2023-04-26T16:13:39.147Z,100298.63
2023-04-26T16:16:08.793Z,100298.25
2023-04-26T16:18:39.515Z,100300.63
2023-04-26T16:21:09.547Z,100301.28
2023-04-26T16:23:37.418Z,100305.81
2023-04-26T16:26:05.105Z,100303.00
2023-04-26T16:28:33.095Z,100312.28
2023-04-26T16:31:01.014Z,100314.19
2023-04-26T16:33:28.994Z,100305.19
2023-04-26T16:35:56.704Z,100319.78
2023-04-26T16:38:24.164Z,100323.91
2023-04-26T16:40:58.478Z,100324.78
2023-04-26T16:43:27.528Z,100323.84
2023-04-26T16:46:06.039Z,100318.31
2023-04-26T16:48:35.985Z,100329.44
2023-04-26T16:51:07.069Z,100329.72
2023-04-26T16:53:36.212Z,100320.97
2023-04-26T16:56:03.996Z,100330.81
2023-04-26T16:58:31.578Z,100337.25
2023-04-26T17:00:59.519Z,100340.69
2023-04-26T17:03:27.910Z,100335.41
2023-04-26T17:05:55.639Z,100338.59
2023-04-26T17:08:23.389Z,100345.16
2023-04-26T17:10:51.916Z,100345.16
2023-04-26T17:13:20.008Z,100346.59
2023-04-26T17:15:48.074Z,100355.25
2023-04-26T17:18:15.961Z,100358.09
2023-04-26T17:20:44.063Z,100369.66
2023-04-26T17:23:11.908Z,100368.28
2023-04-26T17:25:39.469Z,100366.13
2023-04-26T17:28:07.325Z,100368.22
2023-04-26T17:30:35.323Z,100370.88
2023-04-26T17:33:02.928Z,100371.16
2023-04-26T17:35:30.894Z,100372.63
2023-04-26T17:37:58.760Z,100385.00
2023-04-26T17:40:26.540Z,100385.25
2023-04-26T17:42:54.326Z,100387.41
2023-04-26T17:45:22.274Z,100392.81
2023-04-26T17:47:50.594Z,100400.13
2023-04-26T17:50:21.154Z,100400.72
2023-04-26T17:52:49.169Z,100400.19
2023-04-26T17:55:16.979Z,100404.00
2023-04-26T17:57:45.209Z,100402.22
2023-04-26T18:00:13.918Z,100400.28
2023-04-26T18:02:45.401Z,100409.44
2023-04-26T18:05:13.429Z,100406.84
2023-04-26T18:07:42.568Z,100417.13
2023-04-26T18:10:10.737Z,100427.13
2023-04-26T18:12:38.665Z,100426.87
2023-04-26T18:15:07.630Z,100431.41
2023-04-26T18:17:36.127Z,100438.09
2023-04-26T18:20:03.958Z,100429.78
2023-04-26T18:22:32.487Z,100429.28
2023-04-26T18:25:01.214Z,100442.00
2023-04-26T18:27:28.737Z,100448.84
2023-04-26T18:29:56.260Z,100447.50
2023-04-26T18:32:24.363Z,100449.47
2023-04-26T18:34:52.296Z,100455.66
2023-04-26T18:37:20.233Z,100451.47
2023-04-26T18:39:49.041Z,100445.59
2023-04-26T18:42:16.666Z,100454.59
2023-04-26T18:44:44.298Z,100462.38
2023-04-26T18:47:12.440Z,100472.84
2023-04-26T18:49:40.486Z,100466.91
2023-04-26T18:52:08.852Z,100470.87
2023-04-26T18:54:38.962Z,100467.47
2023-04-26T18:57:06.835Z,100465.59
2023-04-26T18:59:34.797Z,100466.53
2023-04-26T19:02:05.259Z,100480.28
2023-04-26T19:04:33.342Z,100474.50
2023-04-26T19:07:01.416Z,100484.69
2023-04-26T19:09:42.722Z,100478.13
2023-04-26T19:12:18.877Z,100481.69
2023-04-26T19:14:46.668Z,100483.59
2023-04-26T19:17:14.377Z,100491.00
2023-04-26T19:19:42.317Z,100490.97
2023-04-26T19:22:10.454Z,100499.97
2023-04-26T19:24:38.185Z,100499.97
2023-04-26T19:27:06.243Z,100499.03
2023-04-26T19:29:34.339Z,100499.22
2023-04-26T19:32:04.560Z,100495.88
2023-04-26T19:34:32.961Z,100500.34
2023-04-26T19:37:01.653Z,100499.03
2023-04-26T19:39:29.367Z,100499.75
2023-04-26T19:41:57.111Z,100497.41
2023-04-26T19:44:26.243Z,100501.09
2023-04-26T19:46:53.846Z,100505.72
2023-04-26T19:49:21.942Z,100500.81
2023-04-26T19:51:50.429Z,100504.31
2023-04-26T19:54:18.689Z,100509.25
2023-04-26T19:56:46.899Z,100501.53
2023-04-26T19:59:14.908Z,100492.19
2023-04-26T20:01:43.313Z,100516.59
2023-04-26T20:04:11.533Z,100509.75
2023-04-26T20:06:39.496Z,100507.66
2023-04-26T20:09:07.927Z,100511.87
2023-04-26T20:11:36.663Z,100500.66
2023-04-26T20:14:04.126Z,100507.63
2023-04-26T20:16:32.553Z,100505.13
2023-04-26T20:19:01.422Z,100508.53
2023-04-26T20:21:29.374Z,100509.44
2023-04-26T20:23:57.208Z,100513.81
2023-04-26T20:26:25.150Z,100524.47
2023-04-26T20:28:52.888Z,100515.19
2023-04-26T20:31:20.646Z,100514.06
2023-04-26T20:33:49.243Z,100513.41
2023-04-26T20:36:17.667Z,100513.47
2023-04-26T20:38:45.595Z,100520.81
2023-04-26T20:41:13.486Z,100513.72
2023-04-26T20:43:59.258Z,100515.44
2023-04-26T20:46:27.169Z,100522.50
2023-04-26T20:48:54.875Z,100523.41
2023-04-26T20:51:22.864Z,100523.69
2023-04-26T20:53:51.045Z,100525.00
2023-04-26T20:56:18.615Z,100522.44
2023-04-26T20:58:46.636Z,100530.22
2023-04-26T21:01:14.764Z,100527.69
2023-04-26T21:03:42.512Z,100531.44
2023-04-26T21:06:10.060Z,100538.59
2023-04-26T21:08:37.772Z,100536.94
2023-04-26T21:11:05.381Z,100533.62
2023-04-26T21:13:32.907Z,100535.56
2023-04-26T21:16:02.309Z,100538.28
2023-04-26T21:18:29.949Z,100539.22
2023-04-26T21:20:57.447Z,100542.03
2023-04-26T21:23:25.273Z,100542.06
2023-04-26T21:25:52.688Z,100543.75
2023-04-26T21:28:20.196Z,100541.41
2023-04-26T21:30:48.028Z,100543.19
2023-04-26T21:33:16.118Z,100545.75
2023-04-26T21:35:43.601Z,100546.88
2023-04-26T21:38:11.464Z,100541.84
2023-04-26T21:40:38.855Z,100546.31
2023-04-26T21:43:06.361Z,100542.16
2023-04-26T21:45:34.154Z,100551.75
2023-04-26T21:48:01.760Z,100564.62
2023-04-26T21:50:29.429Z,100555.13
2023-04-26T21:52:57.189Z,100557.09
2023-04-26T21:55:24.581Z,100553.66
2023-04-26T21:57:52.315Z,100553.84
2023-04-26T22:00:20.454Z,100551.28
2023-04-26T22:02:48.298Z,100551.50
2023-04-26T22:05:15.901Z,100551.66
2023-04-26T22:07:43.406Z,100555.34
2023-04-26T22:10:11.402Z,100558.91
2023-04-26T22:12:39.259Z,100551.38
2023-04-26T22:15:07.257Z,100563.59
2023-04-26T22:17:35.374Z,100564.31
2023-04-26T22:20:03.774Z,100569.72
2023-04-26T22:22:31.284Z,100567.16
2023-04-26T22:24:59.044Z,100569.06
2023-04-26T22:27:26.706Z,100570.03
2023-04-26T22:29:54.166Z,100578.75
2023-04-26T22:32:22.555Z,100578.94
2023-04-26T22:34:50.049Z,100583.31
2023-04-26T22:37:21.184Z,100581.56
2023-04-26T22:39:49.566Z,100580.78
2023-04-26T22:42:16.999Z,100579.97
2023-04-26T22:44:44.547Z,100577.69
2023-04-26T22:47:12.208Z,100583.63
2023-04-26T22:49:39.653Z,100586.00
2023-04-26T22:52:12.117Z,100587.75
2023-04-26T22:54:48.866Z,100582.66
2023-04-26T22:57:16.498Z,100587.56
2023-04-26T22:59:44.163Z,100592.84
2023-04-26T23:02:15.628Z,100592.84
2023-04-26T23:04:43.653Z,100589.31
2023-04-26T23:07:11.164Z,100601.41
2023-04-26T23:09:39.022Z,100603.37
2023-04-26T23:12:07.074Z,100599.94
2023-04-26T23:14:35.244Z,100592.47
2023-04-26T23:17:03.287Z,100592.31
2023-04-26T23:19:31.538Z,100599.31
2023-04-26T23:21:59.128Z,100594.22
2023-04-26T23:24:27.012Z,100596.13
2023-04-26T23:26:54.522Z,100593.75
2023-04-26T23:29:21.994Z,100602.53
2023-04-26T23:31:50.559Z,100600.03
2023-04-26T23:34:18.118Z,100603.47
2023-04-26T23:36:45.577Z,100599.22
2023-04-26T23:39:13.627Z,100607.78
2023-04-26T23:41:41.274Z,100603.44
2023-04-26T23:44:08.759Z,100612.25
2023-04-26T23:46:36.617Z,100609.78
2023-04-26T23:49:04.773Z,100594.25
2023-04-26T23:51:32.807Z,100610.91
2023-04-26T23:54:00.743Z,100603.34
2023-04-26T23:56:28.178Z,100605.84
2023-04-26T23:58:56.212Z,100594.66
